Time,TemperatureF,DewpointF,PressureIn,WindDirection,WindDirectionDegrees,WindSpeedMPH,WindSpeedGustMPH,Humidity,HourlyPrecipIn,Conditions,Clouds,dailyrainin,SoftwareType,DateUTC
2013-06-25 00:03:00,68.2,64.2,29.78,SE,138,3.0,7.0,87,0.00,,,0.00,VWS V14.01,2013-06-25 05:03:00,
2013-06-25 00:08:00,68.0,64.0,29.78,East,101,0.0,2.0,87,0.00,,,0.00,VWS V14.01,2013-06-25 05:08:00,
2013-06-25 00:13:00,67.9,63.9,29.78,ESE,122,3.0,5.0,87,0.00,,,0.00,VWS V14.01,2013-06-25 05:13:00,
2013-06-25 00:18:00,67.8,63.8,29.78,SE,137,0.0,5.0,87,0.00,,,0.00,VWS V14.01,2013-06-25 05:18:00,
2013-06-25 00:23:00,67.7,63.7,29.78,SE,129,0.0,5.0,87,0.00,,,0.00,VWS V14.01,2013-06-25 05:23:00,
2013-06-25 00:28:00,67.6,63.6,29.78,SE,137,2.0,5.0,87,0.00,,,0.00,VWS V14.01,2013-06-25 05:28:00,
2013-06-25 00:33:00,67.5,63.8,29.78,SE,127,0.0,5.0,88,0.00,,,0.00,VWS V14.01,2013-06-25 05:33:00,
2013-06-25 00:38:00,67.4,63.7,29.78,ESE,123,2.0,2.0,88,0.00,,,0.00,VWS V14.01,2013-06-25 05:38:00,
2013-06-25 00:43:00,67.3,63.6,29.78,SE,132,0.0,2.0,88,0.00,,,0.00,VWS V14.01,2013-06-25 05:43:00,
2013-06-25 00:48:00,67.2,63.5,29.78,SE,145,0.0,2.0,88,0.00,,,0.00,VWS V14.01,2013-06-25 05:48:00,
2013-06-25 00:54:00,67.1,63.4,29.78,ESE,113,1.0,3.0,88,0.00,,,0.00,VWS V14.01,2013-06-25 05:54:00,
2013-06-25 00:59:00,67.2,63.2,29.78,ESE,120,2.0,5.0,87,0.00,,,0.00,VWS V14.01,2013-06-25 05:59:00,
2013-06-25 01:04:00,67.4,63.4,29.78,ESE,122,3.0,3.0,87,0.00,,,0.00,VWS V14.01,2013-06-25 06:04:00,
2013-06-25 01:09:00,67.6,63.6,29.78,East,90,2.0,3.0,87,0.00,,,0.00,VWS V14.01,2013-06-25 06:09:00,
2013-06-25 01:14:00,67.7,63.7,29.78,ESE,120,0.0,3.0,87,0.00,,,0.00,VWS V14.01,2013-06-25 06:14:00,
2013-06-25 01:19:00,67.8,63.8,29.78,SSE,165,0.0,3.0,87,0.00,,,0.00,VWS V14.01,2013-06-25 06:19:00,
2013-06-25 01:24:00,67.8,63.8,29.78,SSE,156,0.0,3.0,87,0.00,,,0.00,VWS V14.01,2013-06-25 06:24:00,
2013-06-25 01:29:00,67.7,63.7,29.78,ESE,122,1.0,3.0,87,0.00,,,0.00,VWS V14.01,2013-06-25 06:29:00,
2013-06-25 01:34:00,67.7,63.7,29.78,ESE,118,1.0,1.0,87,0.00,,,0.00,VWS V14.01,2013-06-25 06:34:00,
2013-06-25 01:39:00,67.6,63.6,29.78,ESE,118,0.0,1.0,87,0.00,,,0.00,VWS V14.01,2013-06-25 06:39:00,
2013-06-25 01:45:00,67.5,63.5,29.78,ESE,118,0.0,1.0,87,0.00,,,0.00,VWS V14.01,2013-06-25 06:45:00,
2013-06-25 01:50:00,67.4,63.4,29.78,ESE,118,0.0,1.0,87,0.00,,,0.00,VWS V14.01,2013-06-25 06:50:00,
2013-06-25 01:55:00,67.1,63.1,29.78,ESE,118,0.0,1.0,87,0.00,,,0.00,VWS V14.01,2013-06-25 06:55:00,
2013-06-25 02:00:00,66.9,63.2,29.77,ESE,118,0.0,1.0,88,0.00,,,0.00,VWS V14.01,2013-06-25 07:00:00,
2013-06-25 02:05:00,66.6,62.9,29.78,ESE,118,0.0,0.0,88,0.00,,,0.00,VWS V14.01,2013-06-25 07:05:00,
2013-06-25 02:10:00,66.4,62.7,29.77,ESE,118,0.0,0.0,88,0.00,,,0.00,VWS V14.01,2013-06-25 07:10:00,
2013-06-25 02:15:00,66.2,62.5,29.77,ESE,118,0.0,0.0,88,0.00,,,0.00,VWS V14.01,2013-06-25 07:15:00,
2013-06-25 02:20:00,65.9,62.2,29.77,ESE,118,1.0,1.0,88,0.00,,,0.00,VWS V14.01,2013-06-25 07:20:00,
2013-06-25 02:25:00,65.7,62.0,29.77,SSE,147,1.0,3.0,88,0.00,,,0.00,VWS V14.01,2013-06-25 07:25:00,
2013-06-25 02:30:00,65.6,62.0,29.77,ESE,122,1.0,4.0,88,0.00,,,0.00,VWS V14.01,2013-06-25 07:30:00,
2013-06-25 02:35:00,65.6,61.6,29.77,SW,231,0.0,4.0,87,0.00,,,0.00,VWS V14.01,2013-06-25 07:35:00,
2013-06-25 02:41:00,65.7,62.0,29.77,ESE,112,1.0,4.0,88,0.00,,,0.00,VWS V14.01,2013-06-25 07:41:00,
2013-06-25 02:46:00,65.7,62.0,29.78,SE,134,1.0,4.0,88,0.00,,,0.00,VWS V14.01,2013-06-25 07:46:00,
2013-06-25 02:51:00,65.7,62.0,29.77,SE,133,2.0,4.0,88,0.00,,,0.00,VWS V14.01,2013-06-25 07:51:00,
2013-06-25 02:56:00,65.7,62.0,29.77,ESE,108,0.0,4.0,88,0.00,,,0.00,VWS V14.01,2013-06-25 07:56:00,
2013-06-25 03:01:00,65.7,62.0,29.77,SE,124,1.0,4.0,88,0.00,,,0.00,VWS V14.01,2013-06-25 08:01:00,
2013-06-25 03:06:00,65.6,62.0,29.77,ESE,110,1.0,2.0,88,0.00,,,0.00,VWS V14.01,2013-06-25 08:06:00,
2013-06-25 03:11:00,65.6,62.0,29.77,ESE,120,1.0,4.0,88,0.00,,,0.00,VWS V14.01,2013-06-25 08:11:00,
2013-06-25 03:16:00,65.6,62.0,29.78,ESE,107,0.0,4.0,88,0.00,,,0.00,VWS V14.01,2013-06-25 08:16:00,
2013-06-25 03:21:00,65.5,61.9,29.78,SE,144,0.0,4.0,88,0.00,,,0.00,VWS V14.01,2013-06-25 08:21:00,
2013-06-25 03:26:00,65.5,61.9,29.78,SE,127,0.0,4.0,88,0.00,,,0.00,VWS V14.01,2013-06-25 08:26:00,
2013-06-25 03:32:00,65.5,61.9,29.78,SE,127,0.0,4.0,88,0.00,,,0.00,VWS V14.01,2013-06-25 08:32:00,
2013-06-25 03:37:00,65.4,61.8,29.77,SE,127,0.0,0.0,88,0.00,,,0.00,VWS V14.01,2013-06-25 08:37:00,
2013-06-25 03:42:00,65.3,61.7,29.77,SE,127,0.0,0.0,88,0.00,,,0.00,VWS V14.01,2013-06-25 08:42:00,
2013-06-25 03:47:00,65.2,61.6,29.76,SE,127,0.0,0.0,88,0.00,,,0.00,VWS V14.01,2013-06-25 08:47:00,
2013-06-25 03:52:00,65.0,61.4,29.76,SE,127,0.0,2.0,88,0.00,,,0.00,VWS V14.01,2013-06-25 08:52:00,
2013-06-25 03:57:00,64.9,60.9,29.77,SE,141,0.0,3.0,87,0.00,,,0.00,VWS V14.01,2013-06-25 08:57:00,
2013-06-25 04:02:00,64.9,60.9,29.76,SE,137,2.0,3.0,87,0.00,,,0.00,VWS V14.01,2013-06-25 09:02:00,
2013-06-25 04:07:00,65.0,61.0,29.76,ESE,117,1.0,3.0,87,0.00,,,0.00,VWS V14.01,2013-06-25 09:07:00,
2013-06-25 04:12:00,65.0,61.0,29.77,ESE,108,0.0,3.0,87,0.00,,,0.00,VWS V14.01,2013-06-25 09:12:00,
2013-06-25 04:18:00,65.1,61.1,29.77,ESE,108,0.0,3.0,87,0.00,,,0.00,VWS V14.01,2013-06-25 09:18:00,
2013-06-25 04:23:00,65.1,61.5,29.77,ESE,108,1.0,3.0,88,0.00,,,0.00,VWS V14.01,2013-06-25 09:23:00,
2013-06-25 04:28:00,65.2,61.6,29.77,ESE,114,0.0,3.0,88,0.00,,,0.00,VWS V14.01,2013-06-25 09:28:00,
2013-06-25 04:33:00,65.3,61.7,29.76,SE,137,0.0,3.0,88,0.00,,,0.00,VWS V14.01,2013-06-25 09:33:00,
2013-06-25 04:38:00,65.2,61.6,29.76,SE,135,0.0,1.0,88,0.00,,,0.00,VWS V14.01,2013-06-25 09:38:00,
2013-06-25 04:43:00,65.2,61.6,29.76,ESE,116,0.0,2.0,88,0.00,,,0.00,VWS V14.01,2013-06-25 09:43:00,
2013-06-25 04:48:00,65.1,61.5,29.76,ESE,116,0.0,2.0,88,0.00,,,0.00,VWS V14.01,2013-06-25 09:48:00,
2013-06-25 04:53:00,65.0,61.4,29.76,ESE,116,0.0,2.0,88,0.00,,,0.00,VWS V14.01,2013-06-25 09:53:00,
2013-06-25 04:58:00,64.9,60.9,29.76,ESE,116,0.0,2.0,87,0.00,,,0.00,VWS V14.01,2013-06-25 09:58:00,
2013-06-25 05:03:00,64.7,60.8,29.76,ESE,116,0.0,0.0,87,0.00,,,0.00,VWS V14.01,2013-06-25 10:03:00,
2013-06-25 05:09:00,64.5,60.5,29.76,ESE,116,0.0,0.0,87,0.00,,,0.00,VWS V14.01,2013-06-25 10:09:00,
2013-06-25 05:14:00,64.4,60.5,29.76,ESE,121,0.0,2.0,87,0.00,,,0.00,VWS V14.01,2013-06-25 10:14:00,
2013-06-25 05:19:00,64.3,60.3,29.76,ESE,121,0.0,2.0,87,0.00,,,0.00,VWS V14.01,2013-06-25 10:19:00,
2013-06-25 05:24:00,64.3,60.3,29.76,ESE,121,0.0,2.0,87,0.00,,,0.00,VWS V14.01,2013-06-25 10:24:00,
2013-06-25 05:29:00,64.2,60.3,29.76,ESE,121,0.0,2.0,87,0.00,,,0.00,VWS V14.01,2013-06-25 10:29:00,
2013-06-25 05:34:00,64.1,60.2,29.76,ESE,104,0.0,0.0,87,0.00,,,0.00,VWS V14.01,2013-06-25 10:34:00,
2013-06-25 05:39:00,64.1,60.2,29.75,SE,138,0.0,2.0,87,0.00,,,0.00,VWS V14.01,2013-06-25 10:39:00,
2013-06-25 05:44:00,64.1,59.8,29.74,SE,127,0.0,2.0,86,0.00,,,0.00,VWS V14.01,2013-06-25 10:44:00,
2013-06-25 05:49:00,64.1,60.2,29.74,ESE,104,0.0,2.0,87,0.00,,,0.00,VWS V14.01,2013-06-25 10:49:00,
2013-06-25 05:55:00,64.0,59.7,29.73,ESE,104,0.0,2.0,86,0.00,,,0.00,VWS V14.01,2013-06-25 10:55:00,
2013-06-25 06:00:00,64.0,59.7,29.73,ESE,104,0.0,2.0,86,0.00,,,0.00,VWS V14.01,2013-06-25 11:00:00,
2013-06-25 06:05:00,64.0,59.7,29.74,SE,127,0.0,0.0,86,0.00,,,0.00,VWS V14.01,2013-06-25 11:05:00,
2013-06-25 06:10:00,64.0,59.7,29.74,SE,127,0.0,1.0,86,0.00,,,0.00,VWS V14.01,2013-06-25 11:10:00,
2013-06-25 06:15:00,64.1,59.8,29.74,SE,127,0.0,1.0,86,0.00,,,0.00,VWS V14.01,2013-06-25 11:15:00,
2013-06-25 06:20:00,64.1,59.8,29.74,SE,127,0.0,1.0,86,0.00,,,0.00,VWS V14.01,2013-06-25 11:20:00,
2013-06-25 06:25:00,64.2,59.9,29.74,SE,127,0.0,1.0,86,0.00,,,0.00,VWS V14.01,2013-06-25 11:25:00,
2013-06-25 06:30:00,64.2,59.9,29.75,SE,130,0.0,2.0,86,0.00,,,0.00,VWS V14.01,2013-06-25 11:30:00,
2013-06-25 06:35:00,64.3,60.0,29.75,SE,130,0.0,1.0,86,0.00,,,0.00,VWS V14.01,2013-06-25 11:35:00,
2013-06-25 06:40:00,64.5,59.9,29.75,SE,132,0.0,1.0,85,0.00,,,0.00,VWS V14.01,2013-06-25 11:40:00,
2013-06-25 06:45:00,64.7,60.4,29.75,SE,129,3.0,3.0,86,0.00,,,0.00,VWS V14.01,2013-06-25 11:45:00,
2013-06-25 06:51:00,64.9,60.9,29.76,SE,125,0.0,3.0,87,0.00,,,0.00,VWS V14.01,2013-06-25 11:51:00,
2013-06-25 06:56:00,65.1,61.1,29.76,SE,127,1.0,4.0,87,0.00,,,0.00,VWS V14.01,2013-06-25 11:56:00,
2013-06-25 07:01:00,65.2,61.2,29.76,ESE,112,1.0,4.0,87,0.00,,,0.00,VWS V14.01,2013-06-25 12:01:00,
2013-06-25 07:06:00,65.4,61.4,29.76,ESE,114,0.0,2.0,87,0.00,,,0.00,VWS V14.01,2013-06-25 12:06:00,
2013-06-25 07:11:00,65.5,61.5,29.76,ESE,119,0.0,2.0,87,0.00,,,0.00,VWS V14.01,2013-06-25 12:11:00,
2013-06-25 07:16:00,65.6,61.6,29.76,SE,125,0.0,2.0,87,0.00,,,0.00,VWS V14.01,2013-06-25 12:16:00,
2013-06-25 07:21:00,65.7,61.7,29.76,SE,139,0.0,4.0,87,0.00,,,0.00,VWS V14.01,2013-06-25 12:21:00,
2013-06-25 07:26:00,65.9,61.9,29.76,SE,129,3.0,4.0,87,0.00,,,0.00,VWS V14.01,2013-06-25 12:26:00,
2013-06-25 07:31:00,66.2,62.2,29.76,SE,134,3.0,7.0,87,0.00,,,0.00,VWS V14.01,2013-06-25 12:31:00,
2013-06-25 07:37:00,66.6,62.9,29.76,ENE,61,2.0,5.0,88,0.00,,,0.00,VWS V14.01,2013-06-25 12:37:00,
2013-06-25 07:42:00,67.0,63.3,29.76,North,354,0.0,7.0,88,0.00,,,0.00,VWS V14.01,2013-06-25 12:42:00,
2013-06-25 07:47:00,67.6,63.9,29.76,SE,137,2.0,7.0,88,0.00,,,0.00,VWS V14.01,2013-06-25 12:47:00,
2013-06-25 07:52:00,68.0,64.3,29.75,ESE,120,3.0,7.0,88,0.00,,,0.00,VWS V14.01,2013-06-25 12:52:00,
2013-06-25 07:57:00,68.5,64.5,29.75,ESE,118,3.0,7.0,87,0.00,,,0.00,VWS V14.01,2013-06-25 12:57:00,
2013-06-25 08:02:00,68.8,64.8,29.75,ESE,110,3.0,9.0,87,0.00,,,0.00,VWS V14.01,2013-06-25 13:02:00,
2013-06-25 08:07:00,69.1,65.1,29.75,ESE,110,2.0,3.0,87,0.00,,,0.00,VWS V14.01,2013-06-25 13:07:00,
2013-06-25 08:12:00,69.4,65.4,29.75,ESE,108,4.0,8.0,87,0.00,,,0.00,VWS V14.01,2013-06-25 13:12:00,
2013-06-25 08:17:00,69.7,65.3,29.75,SE,143,1.0,8.0,86,0.00,,,0.00,VWS V14.01,2013-06-25 13:17:00,
2013-06-25 08:23:00,69.8,65.4,29.75,SE,126,2.0,9.0,86,0.00,,,0.00,VWS V14.01,2013-06-25 13:23:00,
2013-06-25 08:28:00,70.0,65.6,29.74,SE,139,4.0,9.0,86,0.00,,,0.00,VWS V14.01,2013-06-25 13:28:00,
2013-06-25 08:33:00,70.1,65.7,29.74,SE,136,3.0,9.0,86,0.00,,,0.00,VWS V14.01,2013-06-25 13:33:00,
2013-06-25 08:38:00,70.4,66.0,29.75,SE,139,1.0,7.0,86,0.00,,,0.00,VWS V14.01,2013-06-25 13:38:00,
2013-06-25 08:43:00,71.0,66.3,29.75,ESE,121,4.0,7.0,85,0.00,,,0.00,VWS V14.01,2013-06-25 13:43:00,
2013-06-25 08:48:00,71.6,66.5,29.75,East,99,1.0,9.0,84,0.00,,,0.00,VWS V14.01,2013-06-25 13:48:00,
2013-06-25 08:53:00,72.2,66.8,29.75,SE,131,3.0,9.0,83,0.00,,,0.00,VWS V14.01,2013-06-25 13:53:00,
2013-06-25 08:58:00,72.8,67.0,29.75,NW,326,1.0,9.0,82,0.00,,,0.00,VWS V14.01,2013-06-25 13:58:00,
2013-06-25 09:03:00,73.3,67.1,29.75,East,95,5.0,9.0,81,0.00,,,0.00,VWS V14.01,2013-06-25 14:03:00,
2013-06-25 09:08:00,73.8,67.2,29.75,East,96,9.0,9.0,80,0.00,,,0.00,VWS V14.01,2013-06-25 14:08:00,
2013-06-25 09:13:00,74.0,66.3,29.75,East,86,3.0,10.0,77,0.00,,,0.00,VWS V14.01,2013-06-25 14:13:00,
2013-06-25 09:19:00,74.0,66.7,29.75,SE,125,5.0,10.0,78,0.00,,,0.00,VWS V14.01,2013-06-25 14:19:00,
2013-06-25 09:24:00,74.1,66.8,29.75,SE,135,4.0,10.0,78,0.00,,,0.00,VWS V14.01,2013-06-25 14:24:00,
2013-06-25 09:29:00,74.4,67.1,29.75,East,85,5.0,10.0,78,0.00,,,0.00,VWS V14.01,2013-06-25 14:29:00,
2013-06-25 09:34:00,74.6,66.9,29.75,SW,231,1.0,2.0,77,0.00,,,0.00,VWS V14.01,2013-06-25 14:34:00,
2013-06-25 09:39:00,74.7,67.0,29.75,SSE,155,7.0,7.0,77,0.00,,,0.00,VWS V14.01,2013-06-25 14:39:00,
2013-06-25 09:44:00,74.8,67.5,29.75,ENE,62,1.0,8.0,78,0.00,,,0.00,VWS V14.01,2013-06-25 14:44:00,
2013-06-25 09:49:00,74.9,67.2,29.75,ESE,114,5.0,8.0,77,0.00,,,0.00,VWS V14.01,2013-06-25 14:49:00,
2013-06-25 09:54:00,75.2,67.9,29.74,East,99,2.0,8.0,78,0.00,,,0.00,VWS V14.01,2013-06-25 14:54:00,
2013-06-25 09:59:00,75.7,68.0,29.74,ESE,116,4.0,9.0,77,0.00,,,0.00,VWS V14.01,2013-06-25 14:59:00,
2013-06-25 10:04:00,76.1,68.4,29.74,ESE,112,2.0,3.0,77,0.00,,,0.00,VWS V14.01,2013-06-25 15:04:00,
2013-06-25 10:10:00,76.5,68.4,29.74,ESE,105,8.0,9.0,76,0.00,,,0.00,VWS V14.01,2013-06-25 15:10:00,
2013-06-25 10:15:00,76.7,67.4,29.74,SE,137,3.0,11.0,73,0.00,,,0.00,VWS V14.01,2013-06-25 15:15:00,
2013-06-25 10:20:00,76.9,68.4,29.74,SE,141,2.0,11.0,75,0.00,,,0.00,VWS V14.01,2013-06-25 15:20:00,
2013-06-25 10:25:00,77.3,68.4,29.74,East,81,3.0,11.0,74,0.00,,,0.00,VWS V14.01,2013-06-25 15:25:00,
2013-06-25 10:30:00,77.5,68.2,29.74,SSW,208,1.0,12.0,73,0.00,,,0.00,VWS V14.01,2013-06-25 15:30:00,
2013-06-25 10:35:00,77.4,67.7,29.74,East,93,6.0,8.0,72,0.00,,,0.00,VWS V14.01,2013-06-25 15:35:00,
2013-06-25 10:40:00,77.1,67.8,29.74,SSE,151,5.0,8.0,73,0.00,,,0.00,VWS V14.01,2013-06-25 15:40:00,
2013-06-25 10:45:00,77.2,68.3,29.74,ESE,114,2.0,10.0,74,0.00,,,0.00,VWS V14.01,2013-06-25 15:45:00,
2013-06-25 10:50:00,77.6,68.7,29.74,SE,126,2.0,10.0,74,0.00,,,0.00,VWS V14.01,2013-06-25 15:50:00,
2013-06-25 10:55:00,77.6,68.3,29.74,South,179,4.0,10.0,73,0.00,,,0.00,VWS V14.01,2013-06-25 15:55:00,
2013-06-25 11:00:00,77.8,69.2,29.74,ESE,103,2.0,10.0,75,0.00,,,0.00,VWS V14.01,2013-06-25 16:00:00,
2013-06-25 11:06:00,78.1,69.5,29.74,SE,137,3.0,5.0,75,0.00,,,0.00,VWS V14.01,2013-06-25 16:06:00,
2013-06-25 11:11:00,78.4,68.6,29.73,South,191,3.0,7.0,72,0.00,,,0.00,VWS V14.01,2013-06-25 16:11:00,
2013-06-25 11:16:00,78.6,68.8,29.74,East,87,2.0,7.0,72,0.00,,,0.00,VWS V14.01,2013-06-25 16:16:00,
2013-06-25 11:21:00,78.8,68.6,29.74,South,172,2.0,10.0,71,0.00,,,0.00,VWS V14.01,2013-06-25 16:21:00,
2013-06-25 11:26:00,79.2,69.4,29.73,SE,143,1.0,10.0,72,0.00,,,0.00,VWS V14.01,2013-06-25 16:26:00,
2013-06-25 11:31:00,79.3,68.7,29.74,East,85,1.0,10.0,70,0.00,,,0.00,VWS V14.01,2013-06-25 16:31:00,
2013-06-25 11:36:00,79.3,68.7,29.74,SE,136,2.0,8.0,70,0.00,,,0.00,VWS V14.01,2013-06-25 16:36:00,
2013-06-25 11:41:00,79.3,69.5,29.74,ESE,114,4.0,8.0,72,0.00,,,0.00,VWS V14.01,2013-06-25 16:41:00,
2013-06-25 11:46:00,79.7,69.5,29.74,SSW,205,1.0,8.0,71,0.00,,,0.00,VWS V14.01,2013-06-25 16:46:00,
2013-06-25 11:51:00,80.3,69.6,29.74,ESE,113,5.0,8.0,70,0.00,,,0.00,VWS V14.01,2013-06-25 16:51:00,
2013-06-25 11:56:00,80.6,69.9,29.74,SE,133,8.0,8.0,70,0.00,,,0.00,VWS V14.01,2013-06-25 16:56:00,
2013-06-25 12:01:00,80.7,69.6,29.74,ESE,120,5.0,8.0,69,0.00,,,0.00,VWS V14.01,2013-06-25 17:01:00,
2013-06-25 12:07:00,80.8,69.3,29.74,SE,125,7.0,7.0,68,0.00,,,0.00,VWS V14.01,2013-06-25 17:07:00,
2013-06-25 12:12:00,81.1,69.1,29.74,SSE,165,6.0,11.0,67,0.00,,,0.00,VWS V14.01,2013-06-25 17:12:00,
2013-06-25 12:17:00,81.1,68.7,29.74,SSE,156,2.0,11.0,66,0.00,,,0.00,VWS V14.01,2013-06-25 17:17:00,
2013-06-25 12:22:00,81.2,69.6,29.74,SE,135,2.0,11.0,68,0.00,,,0.00,VWS V14.01,2013-06-25 17:22:00,
2013-06-25 12:27:00,81.1,67.8,29.74,ESE,120,10.0,11.0,64,0.00,,,0.00,VWS V14.01,2013-06-25 17:27:00,
2013-06-25 12:32:00,80.9,68.0,29.73,SSW,203,1.0,11.0,65,0.00,,,0.00,VWS V14.01,2013-06-25 17:32:00,
2013-06-25 12:37:00,80.9,68.5,29.73,South,181,2.0,11.0,66,0.00,,,0.00,VWS V14.01,2013-06-25 17:37:00,
2013-06-25 12:42:00,80.8,68.4,29.73,East,79,9.0,16.0,66,0.00,,,0.00,VWS V14.01,2013-06-25 17:42:00,
2013-06-25 12:47:00,80.7,68.7,29.73,ESE,112,2.0,16.0,67,0.00,,,0.00,VWS V14.01,2013-06-25 17:47:00,
2013-06-25 12:52:00,81.2,69.6,29.73,ESE,121,0.0,16.0,68,0.00,,,0.00,VWS V14.01,2013-06-25 17:52:00,
2013-06-25 12:57:00,81.1,69.1,29.73,SSW,202,3.0,16.0,67,0.00,,,0.00,VWS V14.01,2013-06-25 17:57:00,
2013-06-25 13:02:00,81.0,69.4,29.73,ENE,64,5.0,16.0,68,0.00,,,0.00,VWS V14.01,2013-06-25 18:02:00,
2013-06-25 13:07:00,80.5,69.4,29.73,ESE,108,9.0,9.0,69,0.00,,,0.00,VWS V14.01,2013-06-25 18:07:00,
2013-06-25 13:13:00,80.1,69.4,29.73,South,177,2.0,11.0,70,0.00,,,0.00,VWS V14.01,2013-06-25 18:13:00,
2013-06-25 13:18:00,80.6,69.9,29.73,ESE,111,9.0,11.0,70,0.00,,,0.00,VWS V14.01,2013-06-25 18:18:00,
2013-06-25 13:23:00,80.7,70.0,29.72,ESE,120,1.0,11.0,70,0.00,,,0.00,VWS V14.01,2013-06-25 18:23:00,
2013-06-25 13:28:00,81.2,70.5,29.72,WNW,301,2.0,11.0,70,0.00,,,0.00,VWS V14.01,2013-06-25 18:28:00,
2013-06-25 13:33:00,81.1,70.0,29.72,SW,230,1.0,11.0,69,0.00,,,0.00,VWS V14.01,2013-06-25 18:33:00,
2013-06-25 13:38:00,81.3,70.2,29.72,East,93,3.0,6.0,69,0.00,,,0.00,VWS V14.01,2013-06-25 18:38:00,
2013-06-25 13:43:00,81.5,69.9,29.72,East,83,1.0,8.0,68,0.00,,,0.00,VWS V14.01,2013-06-25 18:43:00,
2013-06-25 13:48:00,81.7,70.1,29.72,ESE,102,5.0,10.0,68,0.00,,,0.00,VWS V14.01,2013-06-25 18:48:00,
2013-06-25 13:53:00,81.5,70.8,29.71,ESE,105,1.0,10.0,70,0.00,,,0.00,VWS V14.01,2013-06-25 18:53:00,
2013-06-25 13:58:00,81.5,70.4,29.71,South,174,4.0,10.0,69,0.00,,,0.00,VWS V14.01,2013-06-25 18:58:00,
2013-06-25 14:03:00,81.4,69.8,29.71,ESE,114,4.0,10.0,68,0.00,,,0.00,VWS V14.01,2013-06-25 19:03:00,
2013-06-25 14:08:00,81.7,71.8,29.71,SE,130,4.0,7.0,72,0.00,,,0.00,VWS V14.01,2013-06-25 19:08:00,
2013-06-25 14:13:00,82.0,70.8,29.71,ESE,108,1.0,7.0,69,0.00,,,0.00,VWS V14.01,2013-06-25 19:13:00,
2013-06-25 14:18:00,82.4,72.1,29.70,SE,143,1.0,7.0,71,0.00,,,0.00,VWS V14.01,2013-06-25 19:18:00,
2013-06-25 14:24:00,82.7,71.1,29.71,North,4,1.0,7.0,68,0.00,,,0.00,VWS V14.01,2013-06-25 19:24:00,
2013-06-25 14:29:00,83.0,71.4,29.71,ESE,113,1.0,7.0,68,0.00,,,0.00,VWS V14.01,2013-06-25 19:29:00,
2013-06-25 14:34:00,83.3,71.2,29.71,ESE,108,1.0,3.0,67,0.00,,,0.00,VWS V14.01,2013-06-25 19:34:00,
2013-06-25 14:39:00,83.2,70.7,29.71,East,90,1.0,9.0,66,0.00,,,0.00,VWS V14.01,2013-06-25 19:39:00,
2013-06-25 14:44:00,83.4,72.2,29.71,North,354,1.0,9.0,69,0.00,,,0.00,VWS V14.01,2013-06-25 19:44:00,
2013-06-25 14:49:00,83.7,71.6,29.71,ESE,118,2.0,9.0,67,0.00,,,0.00,VWS V14.01,2013-06-25 19:49:00,
2013-06-25 14:54:00,83.9,71.8,29.70,East,79,2.0,9.0,67,0.00,,,0.00,VWS V14.01,2013-06-25 19:54:00,
2013-06-25 14:59:00,83.9,72.2,29.70,NW,305,0.0,9.0,68,0.00,,,0.00,VWS V14.01,2013-06-25 19:59:00,
2013-06-25 15:04:00,84.0,71.4,29.70,SE,131,1.0,3.0,66,0.00,,,0.00,VWS V14.01,2013-06-25 20:04:00,
2013-06-25 15:09:00,84.1,71.5,29.70,ESE,118,2.0,7.0,66,0.00,,,0.00,VWS V14.01,2013-06-25 20:09:00,
2013-06-25 15:14:00,84.3,71.7,29.69,South,173,4.0,7.0,66,0.00,,,0.00,VWS V14.01,2013-06-25 20:14:00,
2013-06-25 15:19:00,84.5,71.4,29.70,NNW,328,1.0,7.0,65,0.00,,,0.00,VWS V14.01,2013-06-25 20:19:00,
2013-06-25 15:24:00,84.8,70.8,29.70,ESE,120,5.0,7.0,63,0.00,,,0.00,VWS V14.01,2013-06-25 20:24:00,
2013-06-25 15:29:00,84.7,70.7,29.70,SSE,163,2.0,7.0,63,0.00,,,0.00,VWS V14.01,2013-06-25 20:29:00,
2013-06-25 15:34:00,84.5,71.9,29.70,ESE,122,2.0,2.0,66,0.00,,,0.00,VWS V14.01,2013-06-25 20:34:00,
2013-06-25 15:40:00,84.5,70.5,29.70,East,100,7.0,7.0,63,0.00,,,0.00,VWS V14.01,2013-06-25 20:40:00,
2013-06-25 15:45:00,84.4,70.9,29.70,SE,137,6.0,11.0,64,0.00,,,0.00,VWS V14.01,2013-06-25 20:45:00,
2013-06-25 15:50:00,84.2,70.7,29.70,ESE,110,7.0,11.0,64,0.00,,,0.00,VWS V14.01,2013-06-25 20:50:00,
2013-06-25 15:55:00,83.9,70.9,29.70,SE,134,2.0,11.0,65,0.00,,,0.00,VWS V14.01,2013-06-25 20:55:00,
2013-06-25 16:00:00,84.1,72.0,29.70,SW,215,2.0,11.0,67,0.00,,,0.00,VWS V14.01,2013-06-25 21:00:00,
2013-06-25 16:05:00,84.2,71.6,29.70,South,183,2.0,4.0,66,0.00,,,0.00,VWS V14.01,2013-06-25 21:05:00,
2013-06-25 16:10:00,84.0,71.9,29.70,East,95,2.0,5.0,67,0.00,,,0.00,VWS V14.01,2013-06-25 21:10:00,
2013-06-25 16:15:00,84.0,72.3,29.70,SE,140,0.0,10.0,68,0.00,,,0.00,VWS V14.01,2013-06-25 21:15:00,
2013-06-25 16:20:00,83.9,72.2,29.71,ESE,114,7.0,10.0,68,0.00,,,0.00,VWS V14.01,2013-06-25 21:20:00,
2013-06-25 16:25:00,83.2,71.6,29.71,ESE,114,2.0,10.0,68,0.00,,,0.00,VWS V14.01,2013-06-25 21:25:00,
2013-06-25 16:30:00,82.7,72.3,29.70,ESE,108,0.0,10.0,71,0.00,,,0.00,VWS V14.01,2013-06-25 21:30:00,
2013-06-25 16:35:00,82.5,72.2,29.70,East,100,1.0,4.0,71,0.00,,,0.00,VWS V14.01,2013-06-25 21:35:00,
2013-06-25 16:40:00,82.5,72.6,29.70,ESE,115,3.0,5.0,72,0.00,,,0.00,VWS V14.01,2013-06-25 21:40:00,
2013-06-25 16:45:00,82.5,72.6,29.70,SE,133,4.0,10.0,72,0.00,,,0.00,VWS V14.01,2013-06-25 21:45:00,
2013-06-25 16:50:00,82.5,72.6,29.70,East,100,2.0,10.0,72,0.00,,,0.00,VWS V14.01,2013-06-25 21:50:00,
2013-06-25 16:56:00,82.4,72.5,29.70,ESE,114,5.0,10.0,72,0.00,,,0.00,VWS V14.01,2013-06-25 21:56:00,
2013-06-25 17:01:00,82.1,72.6,29.70,ESE,110,5.0,10.0,73,0.00,,,0.00,VWS V14.01,2013-06-25 22:01:00,
2013-06-25 17:06:00,81.9,72.0,29.70,SE,140,3.0,7.0,72,0.00,,,0.00,VWS V14.01,2013-06-25 22:06:00,
2013-06-25 17:11:00,81.9,72.0,29.70,SSE,149,5.0,7.0,72,0.00,,,0.00,VWS V14.01,2013-06-25 22:11:00,
2013-06-25 17:16:00,81.8,72.3,29.69,ESE,111,2.0,7.0,73,0.00,,,0.00,VWS V14.01,2013-06-25 22:16:00,
2013-06-25 17:21:00,81.8,72.3,29.69,SE,138,3.0,7.0,73,0.00,,,0.00,VWS V14.01,2013-06-25 22:21:00,
2013-06-25 17:26:00,81.7,72.2,29.69,ESE,114,3.0,7.0,73,0.00,,,0.00,VWS V14.01,2013-06-25 22:26:00,
2013-06-25 17:31:00,81.8,71.9,29.69,SSE,153,2.0,7.0,72,0.00,,,0.00,VWS V14.01,2013-06-25 22:31:00,
2013-06-25 17:36:00,81.8,72.3,29.69,SSE,154,0.0,4.0,73,0.00,,,0.00,VWS V14.01,2013-06-25 22:36:00,
2013-06-25 17:41:00,81.8,72.7,29.69,South,170,0.0,4.0,74,0.00,,,0.00,VWS V14.01,2013-06-25 22:41:00,
2013-06-25 17:42:00,81.8,72.7,29.69,South,170,0.0,4.0,74,0.00,,,0.00,VWS V14.01,2013-06-25 22:42:00,
2013-06-25 17:47:00,81.9,72.4,29.69,East,96,1.0,4.0,73,0.00,,,0.00,VWS V14.01,2013-06-25 22:47:00,
2013-06-25 17:52:00,82.0,72.1,29.69,ESE,109,3.0,4.0,72,0.00,,,0.00,VWS V14.01,2013-06-25 22:52:00,
2013-06-25 17:57:00,82.3,72.0,29.68,ESE,122,0.0,4.0,71,0.00,,,0.00,VWS V14.01,2013-06-25 22:57:00,
2013-06-25 18:02:00,82.5,72.2,29.68,ESE,103,1.0,4.0,71,0.00,,,0.00,VWS V14.01,2013-06-25 23:02:00,
2013-06-25 18:07:00,82.6,72.7,29.68,ESE,111,1.0,2.0,72,0.00,,,0.00,VWS V14.01,2013-06-25 23:07:00,
2013-06-25 18:12:00,82.6,72.2,29.68,SW,217,3.0,4.0,71,0.00,,,0.00,VWS V14.01,2013-06-25 23:12:00,
2013-06-25 18:17:00,82.6,73.1,29.68,SE,127,0.0,4.0,73,0.00,,,0.00,VWS V14.01,2013-06-25 23:17:00,
2013-06-25 18:22:00,82.8,73.3,29.68,SSE,165,1.0,5.0,73,0.00,,,0.00,VWS V14.01,2013-06-25 23:22:00,
2013-06-25 18:28:00,82.8,72.4,29.67,ESE,116,0.0,5.0,71,0.00,,,0.00,VWS V14.01,2013-06-25 23:28:00,
2013-06-25 18:33:00,82.9,72.5,29.67,South,170,0.0,5.0,71,0.00,,,0.00,VWS V14.01,2013-06-25 23:33:00,
2013-06-25 18:38:00,82.8,73.3,29.67,SSW,197,1.0,3.0,73,0.00,,,0.00,VWS V14.01,2013-06-25 23:38:00,
2013-06-25 18:43:00,82.7,73.2,29.67,SSE,159,0.0,5.0,73,0.00,,,0.00,VWS V14.01,2013-06-25 23:43:00,
2013-06-25 18:48:00,82.6,72.7,29.67,South,172,3.0,7.0,72,0.00,,,0.00,VWS V14.01,2013-06-25 23:48:00,
2013-06-25 18:53:00,82.7,72.8,29.67,SE,132,1.0,8.0,72,0.00,,,0.00,VWS V14.01,2013-06-25 23:53:00,
2013-06-25 18:58:00,82.7,73.2,29.67,SE,130,6.0,8.0,73,0.00,,,0.00,VWS V14.01,2013-06-25 23:58:00,
2013-06-25 19:03:00,82.7,72.8,29.67,ESE,108,2.0,8.0,72,0.00,,,0.00,VWS V14.01,2013-06-26 00:03:00,
2013-06-25 19:08:00,82.6,73.1,29.67,ESE,116,4.0,6.0,73,0.00,,,0.00,VWS V14.01,2013-06-26 00:08:00,
2013-06-25 19:14:00,82.5,73.0,29.67,SE,124,3.0,8.0,73,0.00,,,0.00,VWS V14.01,2013-06-26 00:14:00,
2013-06-25 19:19:00,82.4,73.3,29.67,SE,140,0.0,8.0,74,0.00,,,0.00,VWS V14.01,2013-06-26 00:19:00,
2013-06-25 19:24:00,82.3,73.2,29.67,East,87,1.0,8.0,74,0.00,,,0.00,VWS V14.01,2013-06-26 00:24:00,
2013-06-25 19:29:00,82.0,73.3,29.67,ESE,114,2.0,8.0,75,0.00,,,0.00,VWS V14.01,2013-06-26 00:29:00,
2013-06-25 19:34:00,81.9,73.2,29.67,ESE,120,0.0,2.0,75,0.00,,,0.00,VWS V14.01,2013-06-26 00:34:00,
2013-06-25 19:39:00,82.0,73.3,29.67,ESE,118,1.0,3.0,75,0.00,,,0.00,VWS V14.01,2013-06-26 00:39:00,
2013-06-25 19:44:00,82.0,73.3,29.67,SE,139,1.0,5.0,75,0.00,,,0.00,VWS V14.01,2013-06-26 00:44:00,
2013-06-25 19:49:00,82.0,73.3,29.67,SE,137,1.0,5.0,75,0.00,,,0.00,VWS V14.01,2013-06-26 00:49:00,
2013-06-25 19:54:00,81.9,73.2,29.67,ESE,118,2.0,5.0,75,0.00,,,0.00,VWS V14.01,2013-06-26 00:54:00,
2013-06-25 19:59:00,81.9,73.2,29.67,SE,145,2.0,6.0,75,0.00,,,0.00,VWS V14.01,2013-06-26 00:59:00,
2013-06-25 20:05:00,81.9,73.2,29.67,SE,126,4.0,5.0,75,0.00,,,0.00,VWS V14.01,2013-06-26 01:05:00,
2013-06-25 20:10:00,81.8,73.1,29.67,SSW,212,0.0,5.0,75,0.00,,,0.00,VWS V14.01,2013-06-26 01:10:00,
2013-06-25 20:15:00,81.7,73.0,29.67,SE,139,2.0,5.0,75,0.00,,,0.00,VWS V14.01,2013-06-26 01:15:00,
2013-06-25 20:20:00,81.6,73.3,29.67,SE,132,1.0,5.0,76,0.00,,,0.00,VWS V14.01,2013-06-26 01:20:00,
2013-06-25 20:25:00,81.4,73.1,29.67,East,101,1.0,5.0,76,0.00,,,0.00,VWS V14.01,2013-06-26 01:25:00,
2013-06-25 20:30:00,81.1,73.2,29.67,SSE,158,0.0,5.0,77,0.00,,,0.00,VWS V14.01,2013-06-26 01:30:00,
2013-06-25 20:35:00,81.0,73.1,29.66,ESE,116,1.0,2.0,77,0.00,,,0.00,VWS V14.01,2013-06-26 01:35:00,
2013-06-25 20:40:00,80.8,73.3,29.67,SE,128,0.0,2.0,78,0.00,,,0.00,VWS V14.01,2013-06-26 01:40:00,
2013-06-25 20:45:00,80.6,73.1,29.67,SE,128,0.0,2.0,78,0.00,,,0.00,VWS V14.01,2013-06-26 01:45:00,
2013-06-25 20:50:00,80.3,72.8,29.66,SE,128,0.0,2.0,78,0.00,,,0.00,VWS V14.01,2013-06-26 01:50:00,
2013-06-25 20:56:00,80.1,73.0,29.66,SE,128,0.0,2.0,79,0.00,,,0.00,VWS V14.01,2013-06-26 01:56:00,
2013-06-25 21:01:00,79.8,73.1,29.66,SE,128,0.0,2.0,80,0.00,,,0.00,VWS V14.01,2013-06-26 02:01:00,
2013-06-25 21:06:00,79.5,72.8,29.66,SE,128,0.0,1.0,80,0.00,,,0.00,VWS V14.01,2013-06-26 02:06:00,
2013-06-25 21:11:00,79.3,73.0,29.66,SE,128,0.0,1.0,81,0.00,,,0.00,VWS V14.01,2013-06-26 02:11:00,
2013-06-25 21:16:00,79.0,72.7,29.66,SE,129,1.0,1.0,81,0.00,,,0.00,VWS V14.01,2013-06-26 02:16:00,
2013-06-25 21:21:00,78.8,72.8,29.66,SE,129,0.0,1.0,82,0.00,,,0.00,VWS V14.01,2013-06-26 02:21:00,
2013-06-25 21:26:00,78.6,72.7,29.66,SE,128,0.0,1.0,82,0.00,,,0.00,VWS V14.01,2013-06-26 02:26:00,
2013-06-25 21:31:00,78.4,72.8,29.66,SE,128,0.0,1.0,83,0.00,,,0.00,VWS V14.01,2013-06-26 02:31:00,
2013-06-25 21:36:00,78.2,72.6,29.66,SE,128,0.0,0.0,83,0.00,,,0.00,VWS V14.01,2013-06-26 02:36:00,
2013-06-25 21:41:00,77.9,72.7,29.66,SE,129,0.0,0.0,84,0.00,,,0.00,VWS V14.01,2013-06-26 02:41:00,
2013-06-25 21:47:00,77.7,72.5,29.66,SE,129,0.0,2.0,84,0.00,,,0.00,VWS V14.01,2013-06-26 02:47:00,
2013-06-25 21:52:00,77.5,72.3,29.66,ESE,106,0.0,2.0,84,0.00,,,0.00,VWS V14.01,2013-06-26 02:52:00,
2013-06-25 21:57:00,77.3,72.4,29.66,ESE,116,0.0,2.0,85,0.00,,,0.00,VWS V14.01,2013-06-26 02:57:00,
2013-06-25 22:02:00,77.2,72.3,29.66,SSE,167,1.0,2.0,85,0.00,,,0.00,VWS V14.01,2013-06-26 03:02:00,
2013-06-25 22:07:00,77.1,72.2,29.66,SE,128,2.0,2.0,85,0.00,,,0.00,VWS V14.01,2013-06-26 03:07:00,
2013-06-25 22:12:00,77.1,72.2,29.66,ESE,107,0.0,2.0,85,0.00,,,0.00,VWS V14.01,2013-06-26 03:12:00,
2013-06-25 22:17:00,76.9,72.1,29.66,ESE,111,0.0,2.0,85,0.00,,,0.00,VWS V14.01,2013-06-26 03:17:00,
2013-06-25 22:22:00,76.8,72.3,29.67,SE,131,0.0,3.0,86,0.00,,,0.00,VWS V14.01,2013-06-26 03:22:00,
2013-06-25 22:27:00,76.6,72.1,29.66,SE,131,0.0,3.0,86,0.00,,,0.00,VWS V14.01,2013-06-26 03:27:00,
2013-06-25 22:32:00,76.5,72.0,29.66,SE,141,0.0,3.0,86,0.00,,,0.00,VWS V14.01,2013-06-26 03:32:00,
2013-06-25 22:37:00,76.4,71.9,29.66,SE,141,0.0,0.0,86,0.00,,,0.00,VWS V14.01,2013-06-26 03:37:00,
2013-06-25 22:43:00,76.3,71.8,29.66,ESE,112,1.0,5.0,86,0.00,,,0.00,VWS V14.01,2013-06-26 03:43:00,
2013-06-25 22:48:00,76.3,71.8,29.66,SE,145,2.0,5.0,86,0.00,,,0.00,VWS V14.01,2013-06-26 03:48:00,
2013-06-25 22:53:00,76.3,71.8,29.66,SE,130,1.0,5.0,86,0.00,,,0.00,VWS V14.01,2013-06-26 03:53:00,
2013-06-25 22:58:00,76.2,71.7,29.66,SE,133,2.0,5.0,86,0.00,,,0.00,VWS V14.01,2013-06-26 03:58:00,
2013-06-25 23:01:00,76.3,71.8,29.66,SE,135,1.0,5.0,86,0.00,,,0.00,VWS V14.01,2013-06-26 04:01:00,
2013-06-25 23:03:00,76.3,71.8,29.66,SE,142,1.0,5.0,86,0.00,,,0.00,VWS V14.01,2013-06-26 04:03:00,
2013-06-25 23:08:00,76.4,71.9,29.66,SE,136,0.0,2.0,86,0.00,,,0.00,VWS V14.01,2013-06-26 04:08:00,
2013-06-25 23:14:00,76.4,71.9,29.66,ESE,119,0.0,2.0,86,0.00,,,0.00,VWS V14.01,2013-06-26 04:14:00,
2013-06-25 23:19:00,76.4,71.9,29.66,ESE,113,0.0,3.0,86,0.00,,,0.00,VWS V14.01,2013-06-26 04:19:00,
2013-06-25 23:24:00,76.5,72.0,29.66,SE,125,3.0,5.0,86,0.00,,,0.00,VWS V14.01,2013-06-26 04:24:00,
2013-06-25 23:29:00,76.6,72.1,29.66,East,91,1.0,5.0,86,0.00,,,0.00,VWS V14.01,2013-06-26 04:29:00,
2013-06-25 23:34:00,76.6,72.1,29.66,SE,130,1.0,1.0,86,0.00,,,0.00,VWS V14.01,2013-06-26 04:34:00,
2013-06-25 23:39:00,76.6,72.1,29.66,SE,128,1.0,2.0,86,0.00,,,0.00,VWS V14.01,2013-06-26 04:39:00,
2013-06-25 23:44:00,76.6,72.1,29.66,ESE,109,2.0,4.0,86,0.00,,,0.00,VWS V14.01,2013-06-26 04:44:00,
2013-06-25 23:49:00,76.6,72.1,29.66,South,181,1.0,4.0,86,0.00,,,0.00,VWS V14.01,2013-06-26 04:49:00,
2013-06-25 23:54:00,76.6,72.1,29.66,ESE,118,0.0,5.0,86,0.00,,,0.00,VWS V14.01,2013-06-26 04:54:00,